SBSP/CGH METAR and TAF weather

Enter ICAO airport designator
Station Type Date Time Source
SBSP METAR 2019/12/09 14:00 UTC NOAA

SBSP 091400Z VRB03KT 9999 SCT033 26/16 Q1017


Station Type Date Time Source
SBSP Decoded METAR 2019/12/09 14:00 UTC NOAA

Sao Paulo/Congonhas Aeroporto, Brazil (SBSP) 23-37S 046-39W 802M
Dec 09, 2019 - 09:00 AM EST / 2019.12.09 1400 UTC
Wind: Variable at 3 MPH (3 KT):0
Visibility: greater than 7 mile(s):0
Sky conditions: partly cloudy
Temperature: 78 F (26 C)
Dew Point: 60 F (16 C)
Relative Humidity: 54%
Pressure (altimeter): 30.03 in. Hg (1017 hPa)
ob: SBSP 091400Z VRB03KT 9999 SCT033 26/16 Q1017
cycle: 14

Station Type Date Time Source
SBSP TAF 2019/12/09 12:09 UTC NOAA

TAF SBSP 091003Z 0912/0924 07005KT CAVOK TX26/0916Z TN17/0923Z
BECMG 0912/0914 SCT033 PROB30 0917/0921 16011KT 4000 TSRA BR BKN011 FEW040CB
RMK PHM

Example: see airport list